sensor_id;sensor_type;location;lat;lon;timestamp;P1;durP1;ratioP1;P2;durP2;ratioP2
47455;SDS011;33202;48.512;-2.780;2023-10-09T00:01:25;5.45;;;3.47;;
47455;SDS011;33202;48.512;-2.780;2023-10-09T00:03:51;6.25;;;3.55;;
47455;SDS011;33202;48.512;-2.780;2023-10-09T00:06:19;5.97;;;3.63;;
47455;SDS011;33202;48.512;-2.780;2023-10-09T00:09:17;6.82;;;3.70;;
47455;SDS011;33202;48.512;-2.780;2023-10-09T00:11:43;5.28;;;3.67;;
47455;SDS011;33202;48.512;-2.780;2023-10-09T00:14:10;8.63;;;3.80;;
47455;SDS011;33202;48.512;-2.780;2023-10-09T00:16:36;6.67;;;3.83;;
47455;SDS011;33202;48.512;-2.780;2023-10-09T00:19:12;5.65;;;3.47;;
47455;SDS011;33202;48.512;-2.780;2023-10-09T00:21:40;5.65;;;3.58;;
47455;SDS011;33202;48.512;-2.780;2023-10-09T00:24:06;6.88;;;3.85;;
47455;SDS011;33202;48.512;-2.780;2023-10-09T00:26:38;8.30;;;3.97;;
47455;SDS011;33202;48.512;-2.780;2023-10-09T00:29:09;5.85;;;3.67;;
47455;SDS011;33202;48.512;-2.780;2023-10-09T00:31:47;5.93;;;3.40;;
47455;SDS011;33202;48.512;-2.780;2023-10-09T00:34:16;6.72;;;4.00;;
47455;SDS011;33202;48.512;-2.780;2023-10-09T00:36:47;8.00;;;3.60;;
47455;SDS011;33202;48.512;-2.780;2023-10-09T00:39:17;6.35;;;3.83;;
47455;SDS011;33202;48.512;-2.780;2023-10-09T00:41:47;5.60;;;3.58;;
47455;SDS011;33202;48.512;-2.780;2023-10-09T00:44:13;6.15;;;3.78;;
47455;SDS011;33202;48.512;-2.780;2023-10-09T00:46:39;7.13;;;3.22;;
47455;SDS011;33202;48.512;-2.780;2023-10-09T00:49:08;7.53;;;3.50;;
47455;SDS011;33202;48.512;-2.780;2023-10-09T00:51:35;6.88;;;3.80;;
47455;SDS011;33202;48.512;-2.780;2023-10-09T00:54:05;5.82;;;3.55;;
47455;SDS011;33202;48.512;-2.780;2023-10-09T00:56:38;6.28;;;3.72;;
47455;SDS011;33202;48.512;-2.780;2023-10-09T00:59:08;6.93;;;3.42;;
47455;SDS011;33202;48.512;-2.780;2023-10-09T01:01:39;5.80;;;3.50;;
47455;SDS011;33202;48.512;-2.780;2023-10-09T01:04:06;6.35;;;3.60;;
47455;SDS011;33202;48.512;-2.780;2023-10-09T01:06:36;7.63;;;3.80;;
47455;SDS011;33202;48.512;-2.780;2023-10-09T01:09:08;5.53;;;3.25;;
47455;SDS011;33202;48.512;-2.780;2023-10-09T01:11:35;4.97;;;3.15;;
47455;SDS011;33202;48.512;-2.780;2023-10-09T01:14:28;4.95;;;3.20;;
47455;SDS011;33202;48.512;-2.780;2023-10-09T01:16:55;6.03;;;3.22;;
47455;SDS011;33202;48.512;-2.780;2023-10-09T01:19:22;5.85;;;3.30;;
47455;SDS011;33202;48.512;-2.780;2023-10-09T01:21:56;5.50;;;3.55;;
47455;SDS011;33202;48.512;-2.780;2023-10-09T01:24:41;8.13;;;3.75;;
47455;SDS011;33202;48.512;-2.780;2023-10-09T01:27:08;6.40;;;4.07;;
47455;SDS011;33202;48.512;-2.780;2023-10-09T01:29:40;6.22;;;3.13;;
47455;SDS011;33202;48.512;-2.780;2023-10-09T01:32:07;7.05;;;3.83;;
47455;SDS011;33202;48.512;-2.780;2023-10-09T01:34:41;5.25;;;2.95;;
47455;SDS011;33202;48.512;-2.780;2023-10-09T01:37:15;5.13;;;2.92;;
47455;SDS011;33202;48.512;-2.780;2023-10-09T01:39:48;7.25;;;3.33;;
47455;SDS011;33202;48.512;-2.780;2023-10-09T01:42:15;5.47;;;3.25;;
47455;SDS011;33202;48.512;-2.780;2023-10-09T01:45:00;6.22;;;3.10;;
47455;SDS011;33202;48.512;-2.780;2023-10-09T01:47:44;5.60;;;3.30;;
47455;SDS011;33202;48.512;-2.780;2023-10-09T01:50:17;5.32;;;3.17;;
47455;SDS011;33202;48.512;-2.780;2023-10-09T01:52:47;6.28;;;3.20;;
47455;SDS011;33202;48.512;-2.780;2023-10-09T01:55:13;7.07;;;3.35;;
47455;SDS011;33202;48.512;-2.780;2023-10-09T01:57:59;5.18;;;3.30;;
47455;SDS011;33202;48.512;-2.780;2023-10-09T02:00:30;5.13;;;3.03;;
47455;SDS011;33202;48.512;-2.780;2023-10-09T02:03:00;4.68;;;2.95;;
47455;SDS011;33202;48.512;-2.780;2023-10-09T02:05:30;5.50;;;3.50;;
47455;SDS011;33202;48.512;-2.780;2023-10-09T02:08:01;6.80;;;3.53;;
47455;SDS011;33202;48.512;-2.780;2023-10-09T02:10:29;5.60;;;3.42;;
47455;SDS011;33202;48.512;-2.780;2023-10-09T02:13:04;4.60;;;2.63;;
47455;SDS011;33202;48.512;-2.780;2023-10-09T02:15:37;5.80;;;3.17;;
47455;SDS011;33202;48.512;-2.780;2023-10-09T02:21:08;6.13;;;3.53;;
47455;SDS011;33202;48.512;-2.780;2023-10-09T02:23:34;5.60;;;3.40;;
47455;SDS011;33202;48.512;-2.780;2023-10-09T02:26:05;4.43;;;3.05;;
47455;SDS011;33202;48.512;-2.780;2023-10-09T02:28:32;6.00;;;3.20;;
47455;SDS011;33202;48.512;-2.780;2023-10-09T02:30:59;5.60;;;3.13;;
47455;SDS011;33202;48.512;-2.780;2023-10-09T02:33:28;5.45;;;3.17;;
47455;SDS011;33202;48.512;-2.780;2023-10-09T02:35:55;5.85;;;3.45;;
47455;SDS011;33202;48.512;-2.780;2023-10-09T02:38:24;6.03;;;3.30;;
47455;SDS011;33202;48.512;-2.780;2023-10-09T02:40:51;5.43;;;2.97;;
47455;SDS011;33202;48.512;-2.780;2023-10-09T02:43:29;4.55;;;2.90;;
47455;SDS011;33202;48.512;-2.780;2023-10-09T02:46:09;6.13;;;3.78;;
47455;SDS011;33202;48.512;-2.780;2023-10-09T02:48:42;5.70;;;2.95;;
47455;SDS011;33202;48.512;-2.780;2023-10-09T02:51:10;6.10;;;3.50;;
47455;SDS011;33202;48.512;-2.780;2023-10-09T02:53:46;6.47;;;3.67;;
47455;SDS011;33202;48.512;-2.780;2023-10-09T02:56:15;5.30;;;3.33;;
47455;SDS011;33202;48.512;-2.780;2023-10-09T02:58:43;4.80;;;2.85;;
47455;SDS011;33202;48.512;-2.780;2023-10-09T03:01:12;5.05;;;3.15;;
47455;SDS011;33202;48.512;-2.780;2023-10-09T03:03:41;6.43;;;3.20;;
47455;SDS011;33202;48.512;-2.780;2023-10-09T03:06:15;5.03;;;2.92;;
47455;SDS011;33202;48.512;-2.780;2023-10-09T03:08:53;5.45;;;3.22;;
47455;SDS011;33202;48.512;-2.780;2023-10-09T03:11:20;7.40;;;3.15;;
47455;SDS011;33202;48.512;-2.780;2023-10-09T03:13:46;4.65;;;2.85;;
47455;SDS011;33202;48.512;-2.780;2023-10-09T03:16:12;6.57;;;3.35;;
47455;SDS011;33202;48.512;-2.780;2023-10-09T03:18:45;5.13;;;3.03;;
47455;SDS011;33202;48.512;-2.780;2023-10-09T03:23:39;6.28;;;3.20;;
47455;SDS011;33202;48.512;-2.780;2023-10-09T03:26:05;5.65;;;3.10;;
47455;SDS011;33202;48.512;-2.780;2023-10-09T03:28:33;6.13;;;2.92;;
47455;SDS011;33202;48.512;-2.780;2023-10-09T03:30:59;8.25;;;3.35;;
47455;SDS011;33202;48.512;-2.780;2023-10-09T03:33:28;5.03;;;3.20;;
47455;SDS011;33202;48.512;-2.780;2023-10-09T03:35:58;5.22;;;3.08;;
47455;SDS011;33202;48.512;-2.780;2023-10-09T03:38:24;5.85;;;3.13;;
47455;SDS011;33202;48.512;-2.780;2023-10-09T03:40:54;7.00;;;3.22;;
47455;SDS011;33202;48.512;-2.780;2023-10-09T03:43:20;7.40;;;3.10;;
47455;SDS011;33202;48.512;-2.780;2023-10-09T03:45:46;5.60;;;3.00;;
47455;SDS011;33202;48.512;-2.780;2023-10-09T03:48:19;6.75;;;3.40;;
47455;SDS011;33202;48.512;-2.780;2023-10-09T03:50:57;5.75;;;3.53;;
47455;SDS011;33202;48.512;-2.780;2023-10-09T03:53:37;5.35;;;3.25;;
47455;SDS011;33202;48.512;-2.780;2023-10-09T03:56:07;5.22;;;3.30;;
47455;SDS011;33202;48.512;-2.780;2023-10-09T03:58:40;5.63;;;3.25;;
47455;SDS011;33202;48.512;-2.780;2023-10-09T04:01:10;5.18;;;2.72;;
47455;SDS011;33202;48.512;-2.780;2023-10-09T04:03:42;6.57;;;3.35;;
47455;SDS011;33202;48.512;-2.780;2023-10-09T04:06:08;6.75;;;3.00;;
47455;SDS011;33202;48.512;-2.780;2023-10-09T04:13:41;5.88;;;2.97;;
47455;SDS011;33202;48.512;-2.780;2023-10-09T04:16:07;6.55;;;3.30;;
47455;SDS011;33202;48.512;-2.780;2023-10-09T04:18:45;6.35;;;3.10;;
47455;SDS011;33202;48.512;-2.780;2023-10-09T04:23:44;5.70;;;3.10;;
47455;SDS011;33202;48.512;-2.780;2023-10-09T04:26:34;5.45;;;3.40;;
47455;SDS011;33202;48.512;-2.780;2023-10-09T04:29:00;6.78;;;3.40;;
47455;SDS011;33202;48.512;-2.780;2023-10-09T04:31:27;8.38;;;3.47;;
47455;SDS011;33202;48.512;-2.780;2023-10-09T04:34:02;7.50;;;3.05;;
47455;SDS011;33202;48.512;-2.780;2023-10-09T04:36:47;3.97;;;2.58;;
47455;SDS011;33202;48.512;-2.780;2023-10-09T04:39:39;5.93;;;3.13;;
47455;SDS011;33202;48.512;-2.780;2023-10-09T04:42:12;6.88;;;3.65;;
47455;SDS011;33202;48.512;-2.780;2023-10-09T04:44:50;5.88;;;3.03;;
47455;SDS011;33202;48.512;-2.780;2023-10-09T04:47:45;6.35;;;3.20;;
47455;SDS011;33202;48.512;-2.780;2023-10-09T04:50:15;7.65;;;3.40;;
47455;SDS011;33202;48.512;-2.780;2023-10-09T04:52:43;5.65;;;3.20;;
47455;SDS011;33202;48.512;-2.780;2023-10-09T04:55:09;6.70;;;3.40;;
47455;SDS011;33202;48.512;-2.780;2023-10-09T04:57:45;5.88;;;3.30;;
47455;SDS011;33202;48.512;-2.780;2023-10-09T05:02:53;6.28;;;3.35;;
47455;SDS011;33202;48.512;-2.780;2023-10-09T05:05:26;5.28;;;2.75;;
47455;SDS011;33202;48.512;-2.780;2023-10-09T05:08:07;6.10;;;3.60;;
47455;SDS011;33202;48.512;-2.780;2023-10-09T05:10:50;7.13;;;3.38;;
47455;SDS011;33202;48.512;-2.780;2023-10-09T05:13:34;6.03;;;3.42;;
47455;SDS011;33202;48.512;-2.780;2023-10-09T05:16:04;5.35;;;3.30;;
47455;SDS011;33202;48.512;-2.780;2023-10-09T05:18:30;8.15;;;3.38;;
47455;SDS011;33202;48.512;-2.780;2023-10-09T05:21:05;6.82;;;3.60;;
47455;SDS011;33202;48.512;-2.780;2023-10-09T05:23:37;6.82;;;3.70;;
47455;SDS011;33202;48.512;-2.780;2023-10-09T05:26:13;6.75;;;3.67;;
47455;SDS011;33202;48.512;-2.780;2023-10-09T05:29:02;4.97;;;3.13;;
47455;SDS011;33202;48.512;-2.780;2023-10-09T05:31:45;7.90;;;4.13;;
47455;SDS011;33202;48.512;-2.780;2023-10-09T05:34:21;5.93;;;3.37;;
47455;SDS011;33202;48.512;-2.780;2023-10-09T05:36:48;6.30;;;3.77;;
47455;SDS011;33202;48.512;-2.780;2023-10-09T05:39:14;6.95;;;3.42;;
47455;SDS011;33202;48.512;-2.780;2023-10-09T05:41:47;6.72;;;3.45;;
47455;SDS011;33202;48.512;-2.780;2023-10-09T05:44:16;6.70;;;3.63;;
47455;SDS011;33202;48.512;-2.780;2023-10-09T05:47:01;7.78;;;3.75;;
47455;SDS011;33202;48.512;-2.780;2023-10-09T05:49:45;9.98;;;3.78;;
47455;SDS011;33202;48.512;-2.780;2023-10-09T05:52:12;7.63;;;3.92;;
47455;SDS011;33202;48.512;-2.780;2023-10-09T05:54:57;6.55;;;3.60;;
47455;SDS011;33202;48.512;-2.780;2023-10-09T05:57:41;6.45;;;3.38;;
47455;SDS011;33202;48.512;-2.780;2023-10-09T06:00:26;9.98;;;4.97;;
47455;SDS011;33202;48.512;-2.780;2023-10-09T06:03:10;9.93;;;4.90;;
47455;SDS011;33202;48.512;-2.780;2023-10-09T06:05:50;9.60;;;4.20;;
47455;SDS011;33202;48.512;-2.780;2023-10-09T06:08:31;7.40;;;4.00;;
47455;SDS011;33202;48.512;-2.780;2023-10-09T06:11:06;6.90;;;3.72;;
47455;SDS011;33202;48.512;-2.780;2023-10-09T06:13:51;5.93;;;3.63;;
47455;SDS011;33202;48.512;-2.780;2023-10-09T06:16:28;6.43;;;3.70;;
47455;SDS011;33202;48.512;-2.780;2023-10-09T06:19:03;5.63;;;3.42;;
47455;SDS011;33202;48.512;-2.780;2023-10-09T06:21:33;7.40;;;4.28;;
47455;SDS011;33202;48.512;-2.780;2023-10-09T06:24:21;9.38;;;4.68;;
47455;SDS011;33202;48.512;-2.780;2023-10-09T06:26:48;8.52;;;4.40;;
47455;SDS011;33202;48.512;-2.780;2023-10-09T06:29:26;6.50;;;3.70;;
47455;SDS011;33202;48.512;-2.780;2023-10-09T06:32:16;7.40;;;4.20;;
47455;SDS011;33202;48.512;-2.780;2023-10-09T06:34:46;10.02;;;4.25;;
47455;SDS011;33202;48.512;-2.780;2023-10-09T06:37:40;8.10;;;4.18;;
47455;SDS011;33202;48.512;-2.780;2023-10-09T06:40:26;9.10;;;4.43;;
47455;SDS011;33202;48.512;-2.780;2023-10-09T06:43:11;6.45;;;3.90;;
47455;SDS011;33202;48.512;-2.780;2023-10-09T06:45:54;7.18;;;4.15;;
47455;SDS011;33202;48.512;-2.780;2023-10-09T06:48:23;8.48;;;4.20;;
47455;SDS011;33202;48.512;-2.780;2023-10-09T06:51:05;6.35;;;3.53;;
47455;SDS011;33202;48.512;-2.780;2023-10-09T06:53:49;6.45;;;3.75;;
47455;SDS011;33202;48.512;-2.780;2023-10-09T06:56:22;10.63;;;4.47;;
47455;SDS011;33202;48.512;-2.780;2023-10-09T06:58:54;8.88;;;3.83;;
47455;SDS011;33202;48.512;-2.780;2023-10-09T07:01:23;9.80;;;3.72;;
47455;SDS011;33202;48.512;-2.780;2023-10-09T07:04:07;8.10;;;3.80;;
47455;SDS011;33202;48.512;-2.780;2023-10-09T07:07:05;7.18;;;3.95;;
47455;SDS011;33202;48.512;-2.780;2023-10-09T07:09:46;6.63;;;3.88;;
47455;SDS011;33202;48.512;-2.780;2023-10-09T07:12:34;8.75;;;3.75;;
47455;SDS011;33202;48.512;-2.780;2023-10-09T07:15:07;7.90;;;3.80;;
47455;SDS011;33202;48.512;-2.780;2023-10-09T07:17:33;7.82;;;3.70;;
47455;SDS011;33202;48.512;-2.780;2023-10-09T07:19:59;11.07;;;4.13;;
47455;SDS011;33202;48.512;-2.780;2023-10-09T07:22:38;6.20;;;3.85;;
47455;SDS011;33202;48.512;-2.780;2023-10-09T07:25:05;7.03;;;3.28;;
47455;SDS011;33202;48.512;-2.780;2023-10-09T07:27:52;6.40;;;3.50;;
47455;SDS011;33202;48.512;-2.780;2023-10-09T07:30:20;8.43;;;3.92;;
47455;SDS011;33202;48.512;-2.780;2023-10-09T07:33:05;7.72;;;3.80;;
47455;SDS011;33202;48.512;-2.780;2023-10-09T07:35:34;5.88;;;3.38;;
47455;SDS011;33202;48.512;-2.780;2023-10-09T07:38:22;9.25;;;4.80;;
47455;SDS011;33202;48.512;-2.780;2023-10-09T07:40:53;9.90;;;5.65;;
47455;SDS011;33202;48.512;-2.780;2023-10-09T07:43:35;12.13;;;6.72;;
47455;SDS011;33202;48.512;-2.780;2023-10-09T07:46:08;12.65;;;7.28;;
47455;SDS011;33202;48.512;-2.780;2023-10-09T07:48:57;14.60;;;7.28;;
47455;SDS011;33202;48.512;-2.780;2023-10-09T07:51:26;12.07;;;7.55;;
47455;SDS011;33202;48.512;-2.780;2023-10-09T07:53:58;12.23;;;7.47;;
47455;SDS011;33202;48.512;-2.780;2023-10-09T07:56:48;11.75;;;7.07;;
47455;SDS011;33202;48.512;-2.780;2023-10-09T07:59:18;8.85;;;5.68;;
47455;SDS011;33202;48.512;-2.780;2023-10-09T08:01:45;10.65;;;5.40;;
47455;SDS011;33202;48.512;-2.780;2023-10-09T08:04:23;8.52;;;5.30;;
47455;SDS011;33202;48.512;-2.780;2023-10-09T08:07:13;11.23;;;4.63;;
47455;SDS011;33202;48.512;-2.780;2023-10-09T08:09:51;10.70;;;3.58;;
47455;SDS011;33202;48.512;-2.780;2023-10-09T08:12:37;8.48;;;4.60;;
47455;SDS011;33202;48.512;-2.780;2023-10-09T08:15:09;11.80;;;4.43;;
47455;SDS011;33202;48.512;-2.780;2023-10-09T08:17:47;13.23;;;3.83;;
47455;SDS011;33202;48.512;-2.780;2023-10-09T08:20:25;7.60;;;3.47;;
47455;SDS011;33202;48.512;-2.780;2023-10-09T08:22:54;7.88;;;4.07;;
47455;SDS011;33202;48.512;-2.780;2023-10-09T08:25:24;8.70;;;3.58;;
47455;SDS011;33202;48.512;-2.780;2023-10-09T08:28:00;12.50;;;3.95;;
47455;SDS011;33202;48.512;-2.780;2023-10-09T08:30:41;9.80;;;3.50;;
47455;SDS011;33202;48.512;-2.780;2023-10-09T08:33:15;10.90;;;3.90;;
47455;SDS011;33202;48.512;-2.780;2023-10-09T08:36:05;7.47;;;3.08;;
47455;SDS011;33202;48.512;-2.780;2023-10-09T08:41:09;10.55;;;3.42;;
47455;SDS011;33202;48.512;-2.780;2023-10-09T08:43:47;12.38;;;3.22;;
47455;SDS011;33202;48.512;-2.780;2023-10-09T08:46:14;12.55;;;3.53;;
47455;SDS011;33202;48.512;-2.780;2023-10-09T08:48:44;7.60;;;3.17;;
47455;SDS011;33202;48.512;-2.780;2023-10-09T08:51:11;7.82;;;3.45;;
47455;SDS011;33202;48.512;-2.780;2023-10-09T08:53:37;8.30;;;3.53;;
47455;SDS011;33202;48.512;-2.780;2023-10-09T08:56:09;5.85;;;2.92;;
47455;SDS011;33202;48.512;-2.780;2023-10-09T08:58:35;8.05;;;3.38;;
47455;SDS011;33202;48.512;-2.780;2023-10-09T09:01:05;7.25;;;3.30;;
47455;SDS011;33202;48.512;-2.780;2023-10-09T09:03:38;12.48;;;3.50;;
47455;SDS011;33202;48.512;-2.780;2023-10-09T09:06:04;8.70;;;3.35;;
47455;SDS011;33202;48.512;-2.780;2023-10-09T09:08:31;10.35;;;3.38;;
47455;SDS011;33202;48.512;-2.780;2023-10-09T09:11:04;9.00;;;2.92;;
47455;SDS011;33202;48.512;-2.780;2023-10-09T09:13:43;8.25;;;3.00;;
47455;SDS011;33202;48.512;-2.780;2023-10-09T09:16:17;9.63;;;3.45;;
47455;SDS011;33202;48.512;-2.780;2023-10-09T09:18:53;7.75;;;3.05;;
47455;SDS011;33202;48.512;-2.780;2023-10-09T09:21:26;6.65;;;3.05;;
47455;SDS011;33202;48.512;-2.780;2023-10-09T09:23:53;7.32;;;3.30;;
47455;SDS011;33202;48.512;-2.780;2023-10-09T09:26:32;6.22;;;2.90;;
47455;SDS011;33202;48.512;-2.780;2023-10-09T09:29:02;9.23;;;3.30;;
47455;SDS011;33202;48.512;-2.780;2023-10-09T09:31:30;9.68;;;2.88;;
47455;SDS011;33202;48.512;-2.780;2023-10-09T09:34:02;9.65;;;3.50;;
47455;SDS011;33202;48.512;-2.780;2023-10-09T09:36:34;19.98;;;3.85;;
47455;SDS011;33202;48.512;-2.780;2023-10-09T09:39:00;8.90;;;3.22;;
47455;SDS011;33202;48.512;-2.780;2023-10-09T09:41:29;9.32;;;3.75;;
47455;SDS011;33202;48.512;-2.780;2023-10-09T09:43:59;12.38;;;3.80;;
47455;SDS011;33202;48.512;-2.780;2023-10-09T09:46:28;16.17;;;4.00;;
47455;SDS011;33202;48.512;-2.780;2023-10-09T09:49:01;14.85;;;4.00;;
47455;SDS011;33202;48.512;-2.780;2023-10-09T09:51:32;13.23;;;3.88;;
47455;SDS011;33202;48.512;-2.780;2023-10-09T09:53:58;16.83;;;3.80;;
47455;SDS011;33202;48.512;-2.780;2023-10-09T09:56:24;7.88;;;3.42;;
47455;SDS011;33202;48.512;-2.780;2023-10-09T09:58:51;12.15;;;4.00;;
47455;SDS011;33202;48.512;-2.780;2023-10-09T10:01:25;15.35;;;4.03;;
47455;SDS011;33202;48.512;-2.780;2023-10-09T10:04:00;9.10;;;3.70;;
47455;SDS011;33202;48.512;-2.780;2023-10-09T10:06:29;13.57;;;3.83;;
47455;SDS011;33202;48.512;-2.780;2023-10-09T10:08:57;14.13;;;3.22;;
47455;SDS011;33202;48.512;-2.780;2023-10-09T10:14:13;7.10;;;3.33;;
47455;SDS011;33202;48.512;-2.780;2023-10-09T10:17:03;12.02;;;3.45;;
47455;SDS011;33202;48.512;-2.780;2023-10-09T10:19:59;8.23;;;3.13;;
47455;SDS011;33202;48.512;-2.780;2023-10-09T10:22:29;6.65;;;2.67;;
47455;SDS011;33202;48.512;-2.780;2023-10-09T10:24:56;5.40;;;2.70;;
47455;SDS011;33202;48.512;-2.780;2023-10-09T10:27:23;6.10;;;2.53;;
47455;SDS011;33202;48.512;-2.780;2023-10-09T10:35:17;7.60;;;2.92;;
47455;SDS011;33202;48.512;-2.780;2023-10-09T10:37:46;5.57;;;2.63;;
47455;SDS011;33202;48.512;-2.780;2023-10-09T10:40:28;4.95;;;2.42;;
47455;SDS011;33202;48.512;-2.780;2023-10-09T10:43:04;9.95;;;2.55;;
47455;SDS011;33202;48.512;-2.780;2023-10-09T10:45:44;5.82;;;2.92;;
47455;SDS011;33202;48.512;-2.780;2023-10-09T10:48:10;4.28;;;2.08;;
47455;SDS011;33202;48.512;-2.780;2023-10-09T10:51:02;5.35;;;2.35;;
47455;SDS011;33202;48.512;-2.780;2023-10-09T10:53:30;5.55;;;2.20;;
47455;SDS011;33202;48.512;-2.780;2023-10-09T10:56:12;6.78;;;3.25;;
47455;SDS011;33202;48.512;-2.780;2023-10-09T10:58:42;4.82;;;2.30;;
47455;SDS011;33202;48.512;-2.780;2023-10-09T11:01:20;5.28;;;1.90;;
47455;SDS011;33202;48.512;-2.780;2023-10-09T11:03:50;5.95;;;2.13;;
47455;SDS011;33202;48.512;-2.780;2023-10-09T11:06:26;4.22;;;1.50;;
47455;SDS011;33202;48.512;-2.780;2023-10-09T11:09:08;6.50;;;2.80;;
47455;SDS011;33202;48.512;-2.780;2023-10-09T11:11:46;4.32;;;1.88;;
47455;SDS011;33202;48.512;-2.780;2023-10-09T11:14:13;3.35;;;1.17;;
47455;SDS011;33202;48.512;-2.780;2023-10-09T11:16:39;2.45;;;1.25;;
47455;SDS011;33202;48.512;-2.780;2023-10-09T11:19:21;4.20;;;1.23;;
47455;SDS011;33202;48.512;-2.780;2023-10-09T11:21:54;2.03;;;1.10;;
47455;SDS011;33202;48.512;-2.780;2023-10-09T11:24:25;2.20;;;1.00;;
47455;SDS011;33202;48.512;-2.780;2023-10-09T11:26:52;2.53;;;1.00;;
47455;SDS011;33202;48.512;-2.780;2023-10-09T11:29:21;2.10;;;1.02;;
47455;SDS011;33202;48.512;-2.780;2023-10-09T11:32:06;2.90;;;0.93;;
47455;SDS011;33202;48.512;-2.780;2023-10-09T11:34:34;4.22;;;1.02;;
47455;SDS011;33202;48.512;-2.780;2023-10-09T11:37:02;2.28;;;1.00;;
47455;SDS011;33202;48.512;-2.780;2023-10-09T11:39:31;3.88;;;1.25;;
47455;SDS011;33202;48.512;-2.780;2023-10-09T11:42:06;3.60;;;1.10;;
47455;SDS011;33202;48.512;-2.780;2023-10-09T11:44:39;3.47;;;1.77;;
47455;SDS011;33202;48.512;-2.780;2023-10-09T11:47:06;3.05;;;1.30;;
47455;SDS011;33202;48.512;-2.780;2023-10-09T11:50:00;4.22;;;0.95;;
47455;SDS011;33202;48.512;-2.780;2023-10-09T11:52:30;3.28;;;1.50;;
47455;SDS011;33202;48.512;-2.780;2023-10-09T11:55:00;3.72;;;1.40;;
47455;SDS011;33202;48.512;-2.780;2023-10-09T11:57:28;2.35;;;0.98;;
47455;SDS011;33202;48.512;-2.780;2023-10-09T11:59:58;5.50;;;1.50;;
47455;SDS011;33202;48.512;-2.780;2023-10-09T12:02:35;4.50;;;1.40;;
47455;SDS011;33202;48.512;-2.780;2023-10-09T12:05:09;3.00;;;1.20;;
47455;SDS011;33202;48.512;-2.780;2023-10-09T12:07:41;2.67;;;1.33;;
47455;SDS011;33202;48.512;-2.780;2023-10-09T12:10:07;3.80;;;1.60;;
47455;SDS011;33202;48.512;-2.780;2023-10-09T12:12:35;6.18;;;1.55;;
47455;SDS011;33202;48.512;-2.780;2023-10-09T12:15:01;2.97;;;1.50;;
47455;SDS011;33202;48.512;-2.780;2023-10-09T12:17:30;4.18;;;1.42;;
47455;SDS011;33202;48.512;-2.780;2023-10-09T12:19:56;5.95;;;1.70;;
47455;SDS011;33202;48.512;-2.780;2023-10-09T12:22:23;2.95;;;1.23;;
47455;SDS011;33202;48.512;-2.780;2023-10-09T12:24:52;3.17;;;1.48;;
47455;SDS011;33202;48.512;-2.780;2023-10-09T12:27:19;3.53;;;1.20;;
47455;SDS011;33202;48.512;-2.780;2023-10-09T12:29:45;3.15;;;1.45;;
47455;SDS011;33202;48.512;-2.780;2023-10-09T12:32:11;3.08;;;1.38;;
47455;SDS011;33202;48.512;-2.780;2023-10-09T12:34:38;2.97;;;1.40;;
47455;SDS011;33202;48.512;-2.780;2023-10-09T12:37:04;7.35;;;1.45;;
47455;SDS011;33202;48.512;-2.780;2023-10-09T12:42:00;3.58;;;1.60;;
47455;SDS011;33202;48.512;-2.780;2023-10-09T12:44:34;5.38;;;1.83;;
47455;SDS011;33202;48.512;-2.780;2023-10-09T12:47:06;6.07;;;1.80;;
47455;SDS011;33202;48.512;-2.780;2023-10-09T12:49:36;8.30;;;1.90;;
47455;SDS011;33202;48.512;-2.780;2023-10-09T12:52:06;5.15;;;1.90;;
47455;SDS011;33202;48.512;-2.780;2023-10-09T12:54:40;5.82;;;1.80;;
47455;SDS011;33202;48.512;-2.780;2023-10-09T12:57:06;9.25;;;1.95;;
47455;SDS011;33202;48.512;-2.780;2023-10-09T12:59:38;4.45;;;1.80;;
47455;SDS011;33202;48.512;-2.780;2023-10-09T13:02:05;6.35;;;1.83;;
47455;SDS011;33202;48.512;-2.780;2023-10-09T13:04:31;5.70;;;1.73;;
47455;SDS011;33202;48.512;-2.780;2023-10-09T13:06:57;3.90;;;1.60;;
47455;SDS011;33202;48.512;-2.780;2023-10-09T13:09:29;4.03;;;1.67;;
47455;SDS011;33202;48.512;-2.780;2023-10-09T13:12:07;5.93;;;1.90;;
47455;SDS011;33202;48.512;-2.780;2023-10-09T13:14:33;3.80;;;1.60;;
47455;SDS011;33202;48.512;-2.780;2023-10-09T13:17:00;4.05;;;1.80;;
47455;SDS011;33202;48.512;-2.780;2023-10-09T13:19:33;4.32;;;1.98;;
47455;SDS011;33202;48.512;-2.780;2023-10-09T13:21:59;5.30;;;2.13;;
47455;SDS011;33202;48.512;-2.780;2023-10-09T13:24:28;6.47;;;2.00;;
47455;SDS011;33202;48.512;-2.780;2023-10-09T13:26:56;6.30;;;2.17;;
47455;SDS011;33202;48.512;-2.780;2023-10-09T13:29:26;5.57;;;2.35;;
47455;SDS011;33202;48.512;-2.780;2023-10-09T13:31:53;5.22;;;2.17;;
47455;SDS011;33202;48.512;-2.780;2023-10-09T13:34:23;3.90;;;2.10;;
47455;SDS011;33202;48.512;-2.780;2023-10-09T13:36:53;6.55;;;2.42;;
47455;SDS011;33202;48.512;-2.780;2023-10-09T13:39:19;4.93;;;2.33;;
47455;SDS011;33202;48.512;-2.780;2023-10-09T13:41:55;6.65;;;2.47;;
47455;SDS011;33202;48.512;-2.780;2023-10-09T13:49:18;6.53;;;2.47;;
47455;SDS011;33202;48.512;-2.780;2023-10-09T13:51:47;7.57;;;3.00;;
47455;SDS011;33202;48.512;-2.780;2023-10-09T13:54:15;6.03;;;2.70;;
47455;SDS011;33202;48.512;-2.780;2023-10-09T13:56:53;5.38;;;2.38;;
47455;SDS011;33202;48.512;-2.780;2023-10-09T13:59:20;7.40;;;2.47;;
47455;SDS011;33202;48.512;-2.780;2023-10-09T14:01:48;6.18;;;2.50;;
47455;SDS011;33202;48.512;-2.780;2023-10-09T14:04:14;6.13;;;2.63;;
47455;SDS011;33202;48.512;-2.780;2023-10-09T14:06:44;5.80;;;2.30;;
47455;SDS011;33202;48.512;-2.780;2023-10-09T14:09:10;6.88;;;2.50;;
47455;SDS011;33202;48.512;-2.780;2023-10-09T14:11:52;13.07;;;3.10;;
47455;SDS011;33202;48.512;-2.780;2023-10-09T14:14:18;3.92;;;2.42;;
47455;SDS011;33202;48.512;-2.780;2023-10-09T14:16:50;7.65;;;2.78;;
47455;SDS011;33202;48.512;-2.780;2023-10-09T14:19:22;6.97;;;2.63;;
47455;SDS011;33202;48.512;-2.780;2023-10-09T14:21:48;5.93;;;2.58;;
47455;SDS011;33202;48.512;-2.780;2023-10-09T14:24:14;6.45;;;2.58;;
47455;SDS011;33202;48.512;-2.780;2023-10-09T14:26:41;7.13;;;3.85;;
47455;SDS011;33202;48.512;-2.780;2023-10-09T14:29:08;6.70;;;2.53;;
47455;SDS011;33202;48.512;-2.780;2023-10-09T14:31:34;8.15;;;3.65;;
47455;SDS011;33202;48.512;-2.780;2023-10-09T14:34:04;6.22;;;2.80;;
47455;SDS011;33202;48.512;-2.780;2023-10-09T14:36:34;8.98;;;2.92;;
47455;SDS011;33202;48.512;-2.780;2023-10-09T14:39:00;7.10;;;2.87;;
47455;SDS011;33202;48.512;-2.780;2023-10-09T14:41:26;5.45;;;2.50;;
47455;SDS011;33202;48.512;-2.780;2023-10-09T14:43:58;5.63;;;2.72;;
47455;SDS011;33202;48.512;-2.780;2023-10-09T14:46:24;5.95;;;3.20;;
47455;SDS011;33202;48.512;-2.780;2023-10-09T14:51:19;6.37;;;2.97;;
47455;SDS011;33202;48.512;-2.780;2023-10-09T14:53:52;6.60;;;2.70;;
47455;SDS011;33202;48.512;-2.780;2023-10-09T14:56:18;5.22;;;2.92;;
47455;SDS011;33202;48.512;-2.780;2023-10-09T14:58:53;4.82;;;2.65;;
47455;SDS011;33202;48.512;-2.780;2023-10-09T15:01:21;5.18;;;3.00;;
47455;SDS011;33202;48.512;-2.780;2023-10-09T15:03:49;5.70;;;2.72;;
47455;SDS011;33202;48.512;-2.780;2023-10-09T15:06:18;4.90;;;2.78;;
47455;SDS011;33202;48.512;-2.780;2023-10-09T15:08:44;5.30;;;2.65;;
47455;SDS011;33202;48.512;-2.780;2023-10-09T15:11:11;5.40;;;2.60;;
47455;SDS011;33202;48.512;-2.780;2023-10-09T15:13:39;7.90;;;2.78;;
47455;SDS011;33202;48.512;-2.780;2023-10-09T15:16:05;5.43;;;2.63;;
47455;SDS011;33202;48.512;-2.780;2023-10-09T15:18:31;7.27;;;3.33;;
47455;SDS011;33202;48.512;-2.780;2023-10-09T15:20:59;5.78;;;3.08;;
47455;SDS011;33202;48.512;-2.780;2023-10-09T15:23:25;6.57;;;2.80;;
47455;SDS011;33202;48.512;-2.780;2023-10-09T15:25:51;5.45;;;2.53;;
47455;SDS011;33202;48.512;-2.780;2023-10-09T15:28:21;6.53;;;2.83;;
47455;SDS011;33202;48.512;-2.780;2023-10-09T15:30:48;7.53;;;2.30;;
47455;SDS011;33202;48.512;-2.780;2023-10-09T15:33:17;4.80;;;2.45;;
47455;SDS011;33202;48.512;-2.780;2023-10-09T15:35:45;4.85;;;2.65;;
47455;SDS011;33202;48.512;-2.780;2023-10-09T15:38:17;5.38;;;2.72;;
47455;SDS011;33202;48.512;-2.780;2023-10-09T15:40:44;4.10;;;2.63;;